Time;durP1;ratioP1;P1;durP2;ratioP2;P2;SDS_P1;SDS_P2;PMS_P1;PMS_P2;Temp;Humidity;BMP_temperature;BMP_pressure;BME280_temperature;BME280_humidity;BME280_pressure;Samples;Min_cycle;Max_cycle;Signal;HPM_P1;HPM_P2
2022/12/16 00:01:17;;;;;;;71.10;41.08;;;0.00;99.90;;;;;;5083003;28;20063;-77
2022/12/16 00:03:56;;;;;;;74.65;41.35;;;0.00;99.90;;;;;;5093248;28;20056;-76
2022/12/16 00:06:25;;;;;;;73.43;41.63;;;0.00;99.90;;;;;;5090750;28;20044;-78
2022/12/16 00:08:51;;;;;;;77.95;41.25;;;0.00;99.90;;;;;;5092510;28;20389;-77
2022/12/16 00:11:17;;;;;;;72.75;41.65;;;0.00;99.90;;;;;;5108302;28;20047;-77
2022/12/16 00:13:42;;;;;;;75.45;43.03;;;0.00;99.90;;;;;;5081772;28;20055;-79
2022/12/16 00:16:11;;;;;;;75.63;42.83;;;0.00;99.90;;;;;;5075240;28;20392;-77
2022/12/16 00:18:36;;;;;;;77.85;43.38;;;0.00;99.90;;;;;;5091959;28;20121;-78
2022/12/16 00:21:03;;;;;;;82.00;44.65;;;0.00;99.90;;;;;;5092540;28;20039;-77
2022/12/16 00:23:29;;;;;;;77.05;41.88;;;0.00;99.90;;;;;;5087748;28;20126;-77
2022/12/16 00:25:55;;;;;;;77.13;42.35;;;0.00;99.90;;;;;;5090722;28;20090;-78
2022/12/16 00:28:21;;;;;;;69.65;40.80;;;0.00;99.90;;;;;;5072635;28;20497;-77
2022/12/16 00:30:49;;;;;;;73.80;41.67;;;0.00;99.90;;;;;;5109518;28;20147;-77
2022/12/16 00:33:15;;;;;;;82.82;44.28;;;0.00;99.90;;;;;;5107011;28;20506;-77
2022/12/16 00:35:41;;;;;;;76.85;41.97;;;-0.10;99.90;;;;;;5077215;28;20100;-76
2022/12/16 00:38:07;;;;;;;81.18;43.30;;;-0.10;99.90;;;;;;5093119;28;20154;-77
2022/12/16 00:40:33;;;;;;;71.78;41.95;;;-0.20;99.90;;;;;;5092562;28;20048;-77
2022/12/16 00:42:59;;;;;;;80.40;42.85;;;-0.20;99.90;;;;;;5087569;28;20051;-79
2022/12/16 00:45:25;;;;;;;75.15;40.58;;;-0.40;99.90;;;;;;5070405;28;20119;-77
2022/12/16 00:47:51;;;;;;;68.18;39.65;;;-0.40;99.90;;;;;;5105268;28;20173;-77
2022/12/16 00:50:17;;;;;;;73.68;39.83;;;-0.50;99.90;;;;;;5074527;28;20039;-77
2022/12/16 00:52:44;;;;;;;74.88;41.38;;;-0.50;99.90;;;;;;5081721;27;20396;-77
2022/12/16 00:55:10;;;;;;;81.95;43.00;;;-0.50;99.90;;;;;;5069891;28;20040;-77
2022/12/16 00:57:36;;;;;;;80.95;41.50;;;-0.50;99.90;;;;;;5084054;27;20492;-77
2022/12/16 01:00:04;;;;;;;81.82;43.90;;;-0.40;99.90;;;;;;5090217;28;20060;-80
2022/12/16 01:02:30;;;;;;;83.28;44.70;;;-0.40;99.90;;;;;;5069237;28;20409;-79
2022/12/16 01:04:56;;;;;;;84.95;44.47;;;-0.40;99.90;;;;;;5090852;28;20046;-76
2022/12/16 01:07:21;;;;;;;80.15;42.33;;;-0.40;99.90;;;;;;5108567;28;20044;-76
2022/12/16 01:09:47;;;;;;;80.63;43.67;;;-0.40;99.90;;;;;;5089577;28;20051;-76
2022/12/16 01:12:13;;;;;;;82.57;44.20;;;-0.40;99.90;;;;;;5109799;28;20131;-76
2022/12/16 01:14:38;;;;;;;81.25;42.65;;;-0.40;99.90;;;;;;5093649;28;20100;-77
2022/12/16 01:17:04;;;;;;;76.07;42.38;;;-0.40;99.90;;;;;;5076135;28;20076;-81
2022/12/16 01:19:30;;;;;;;81.75;43.22;;;-0.30;99.90;;;;;;5089503;28;20054;-77
2022/12/16 01:21:55;;;;;;;85.35;44.45;;;-0.30;99.90;;;;;;5091730;28;20123;-78
2022/12/16 01:24:21;;;;;;;90.85;44.45;;;-0.30;99.90;;;;;;5089949;28;20043;-76
2022/12/16 01:26:47;;;;;;;88.07;44.88;;;-0.30;99.90;;;;;;5090884;28;20805;-76
2022/12/16 01:29:12;;;;;;;82.40;42.85;;;-0.30;99.90;;;;;;5069499;28;20079;-77
2022/12/16 01:31:38;;;;;;;82.97;43.33;;;-0.20;99.90;;;;;;5091933;28;20047;-76
2022/12/16 01:34:04;;;;;;;78.72;40.92;;;-0.30;99.90;;;;;;5072344;28;20046;-76
2022/12/16 01:36:29;;;;;;;81.40;44.60;;;-0.30;99.90;;;;;;5068487;28;20127;-78
2022/12/16 01:38:55;;;;;;;81.18;42.75;;;-0.30;99.90;;;;;;5075948;28;20512;-76
2022/12/16 01:41:22;;;;;;;78.70;42.10;;;-0.30;99.90;;;;;;5068716;28;20043;-76
2022/12/16 01:43:48;;;;;;;71.03;41.17;;;-0.30;99.90;;;;;;5073801;28;20054;-76
2022/12/16 01:46:13;;;;;;;80.38;41.00;;;-0.30;99.90;;;;;;5090643;28;20044;-76
2022/12/16 01:48:59;;;;;;;77.00;42.45;;;-0.30;99.90;;;;;;5109002;28;20523;-75
2022/12/16 01:51:41;;;;;;;86.00;42.72;;;-0.30;99.90;;;;;;5106529;28;20048;-76
2022/12/16 01:54:12;;;;;;;82.05;43.08;;;-0.30;99.90;;;;;;5084260;28;20059;-76
2022/12/16 01:56:44;;;;;;;83.22;42.97;;;-0.20;99.90;;;;;;5081315;28;20123;-76
2022/12/16 01:59:12;;;;;;;85.22;44.38;;;-0.20;99.90;;;;;;5095922;27;20200;-80
2022/12/16 02:01:38;;;;;;;85.65;44.00;;;-0.20;99.90;;;;;;5112910;27;20524;-75
2022/12/16 02:04:04;;;;;;;84.53;43.95;;;-0.10;99.90;;;;;;5063106;27;20204;-76
2022/12/16 02:06:30;;;;;;;82.30;43.67;;;-0.10;99.90;;;;;;5111619;27;20074;-77
2022/12/16 02:08:59;;;;;;;81.40;43.10;;;-0.20;99.90;;;;;;5114275;27;20043;-75
2022/12/16 02:11:48;;;;;;;79.65;42.60;;;-0.10;99.90;;;;;;5087353;28;20484;-76
2022/12/16 02:14:17;;;;;;;79.00;42.47;;;-0.10;99.90;;;;;;5089113;27;20035;-77
2022/12/16 02:16:58;;;;;;;81.65;43.05;;;-0.10;99.90;;;;;;5112344;27;20061;-75
2022/12/16 02:19:49;;;;;;;74.20;41.70;;;-0.10;99.90;;;;;;5088088;27;20553;-76
2022/12/16 02:22:14;;;;;;;82.65;42.45;;;-0.10;99.90;;;;;;5105257;27;20047;-79
2022/12/16 02:25:45;;;;;;;81.50;44.90;;;-0.10;99.90;;;;;;5111725;27;20039;-76
2022/12/16 02:28:21;;;;;;;78.65;42.67;;;-0.10;99.90;;;;;;5022555;28;20049;-75
2022/12/16 02:30:59;;;;;;;53.90;31.05;;;-0.10;99.90;;;;;;5004112;28;20073;-76
2022/12/16 02:33:33;;;;;;;75.15;39.67;;;-0.10;99.90;;;;;;5083955;27;20066;-76
2022/12/16 02:36:11;;;;;;;70.90;37.60;;;0.00;99.90;;;;;;5095164;27;20066;-75
2022/12/16 02:38:44;;;;;;;75.07;39.03;;;0.00;99.90;;;;;;5094081;27;20365;-76
2022/12/16 02:41:25;;;;;;;62.92;34.15;;;0.00;99.90;;;;;;5110678;27;20121;-76
2022/12/16 02:44:02;;;;;;;49.97;29.90;;;0.10;99.90;;;;;;5105383;27;20039;-77
2022/12/16 02:46:32;;;;;;;54.63;30.65;;;0.10;99.90;;;;;;5097382;27;20051;-76
2022/12/16 02:49:24;;;;;;;59.45;32.50;;;0.30;99.90;;;;;;5112833;27;20456;-76
2022/12/16 02:51:50;;;;;;;55.63;32.28;;;0.20;99.90;;;;;;5072221;27;20054;-80
2022/12/16 02:54:17;;;;;;;52.20;32.25;;;0.20;99.90;;;;;;5094621;27;20129;-76
2022/12/16 02:56:58;;;;;;;55.53;31.35;;;0.20;99.90;;;;;;5099956;27;20099;-76
2022/12/16 02:59:38;;;;;;;56.25;33.75;;;0.20;99.90;;;;;;5081569;27;20059;-78
2022/12/16 03:02:30;;;;;;;53.42;28.42;;;0.30;99.90;;;;;;5091230;28;20058;-77
2022/12/16 03:05:19;;;;;;;56.10;29.55;;;0.30;99.90;;;;;;5080429;28;20065;-76
2022/12/16 03:07:47;;;;;;;48.20;28.15;;;0.30;99.90;;;;;;5094166;28;20039;-79
2022/12/16 03:10:16;;;;;;;49.22;27.70;;;0.30;99.90;;;;;;5093114;27;20450;-76
2022/12/16 03:12:44;;;;;;;50.92;27.50;;;0.30;99.90;;;;;;5089650;28;20099;-77
2022/12/16 03:15:15;;;;;;;49.33;26.83;;;0.30;99.90;;;;;;5110850;28;20035;-76
2022/12/16 03:17:42;;;;;;;46.10;27.02;;;0.30;99.90;;;;;;5100290;27;20679;-76
2022/12/16 03:20:11;;;;;;;52.40;27.17;;;0.40;99.90;;;;;;5114866;27;20771;-76
2022/12/16 03:22:41;;;;;;;47.75;27.95;;;0.40;99.90;;;;;;5114687;27;20043;-76
2022/12/16 03:25:08;;;;;;;46.03;26.80;;;0.40;99.90;;;;;;5097251;27;20035;-76
2022/12/16 03:27:47;;;;;;;46.17;26.35;;;0.40;99.90;;;;;;5118364;27;20039;-76
2022/12/16 03:30:17;;;;;;;44.28;27.00;;;0.40;99.90;;;;;;5103211;27;20051;-76
2022/12/16 03:32:52;;;;;;;50.58;27.58;;;0.40;99.90;;;;;;5101249;28;20069;-79
2022/12/16 03:35:36;;;;;;;49.97;29.13;;;0.40;99.90;;;;;;5127356;27;20049;-76
2022/12/16 03:38:05;;;;;;;51.88;30.13;;;0.40;99.90;;;;;;5088197;28;20430;-76
2022/12/16 03:40:33;;;;;;;57.80;30.50;;;0.40;99.90;;;;;;5111462;27;20051;-75
2022/12/16 03:43:01;;;;;;;50.42;29.45;;;0.40;99.90;;;;;;5115275;27;20035;-75
2022/12/16 03:45:30;;;;;;;58.40;32.22;;;0.40;99.90;;;;;;5097449;27;20031;-76
2022/12/16 03:47:58;;;;;;;52.38;28.92;;;0.40;99.90;;;;;;5114447;27;20430;-76
2022/12/16 03:50:28;;;;;;;50.83;27.98;;;0.40;99.90;;;;;;5091136;27;20108;-76
2022/12/16 03:52:54;;;;;;;43.78;26.65;;;0.40;99.90;;;;;;5115405;27;20054;-76
2022/12/16 03:55:20;;;;;;;44.88;26.83;;;0.50;99.90;;;;;;5098279;27;20051;-77
2022/12/16 03:57:45;;;;;;;46.72;26.85;;;0.40;99.90;;;;;;5108389;27;20078;-76
2022/12/16 04:00:11;;;;;;;44.10;26.85;;;0.40;99.90;;;;;;5098975;27;20055;-76
2022/12/16 04:02:37;;;;;;;42.38;24.92;;;0.40;99.90;;;;;;5076224;28;20052;-76
2022/12/16 04:05:03;;;;;;;44.53;25.88;;;0.40;99.90;;;;;;5097932;27;20057;-76
2022/12/16 04:07:29;;;;;;;42.40;24.38;;;0.40;99.90;;;;;;5097367;27;20134;-79
2022/12/16 04:09:54;;;;;;;44.05;23.60;;;0.40;99.90;;;;;;5077233;27;20104;-77
2022/12/16 04:26:18;;;;;;;37.67;20.65;;;0.40;99.90;;;;;;5099373;27;20054;-77
2022/12/16 04:28:43;;;;;;;31.48;19.23;;;0.40;99.90;;;;;;5084593;28;20056;-75
2022/12/16 04:31:09;;;;;;;33.80;18.63;;;0.40;99.90;;;;;;5071025;27;20054;-76
